x

Northern Hawaii One - 245nm Ne Of Honolulu Hi (51000) Weather Station

10:50am - Mon 27th Apr 2015 All times are HST. -10 hours from GMT.

  • Wind
    20mph, 27mph gusts
  • Sea Temp 65°f
  • Air Temp 60°f
  • Sea Pressure 1030.6mb
  • Northern Hawaii One - 245nm Ne Of Honolulu Hi
  • Northern Hawaii One - 245nm Ne Of Honolulu Hi

More Historic Weather Station data

Upgrade to MSW Pro to gain access to the past 30 days of data for over 8000 Wavebouys and Weather Stations around the globe.

Join Pro

Comparision Forecast

View Surf forecast
   
Mon 04/27 10:50am  -   -   -  20 27 mph 1030.6mb 65f 60f
9:50am  -   -   -  20 27 mph 1030.6mb 65f 60f
8:50am  -   -   -  18 27 mph 1030.1mb 65f 60f
7:50am  -   -   -  18 25 mph 1029.3mb 65f 60f
6:50am  -   -   -  20 27 mph 1028.4mb 65f 60f
5:50am  -   -   -  22 29 mph 1027.4mb 65f 60f
4:50am 13ft 10s 7s 22 31 mph 1026.3mb 65f 60f
3:50am 14ft 10s 8s 25 31 mph 1026.1mb 65f 60f
2:50am  -   -   -  22 29 mph 1025.8mb 65f 60f
1:50am  -   -   -  25 29 mph 1025.7mb 65f 60f
12:50am 15ft 11s 8s 25 29 mph 1025.5mb 65f 61f
Sun 04/26 11:50pm 14ft 10s 8s 25 29 mph 1025.7mb 65f 61f
10:50pm 15.5ft 11s 8s 27 34 mph 1025.1mb 65f 61f
9:50pm  -   -   -  25 29 mph 1024.8mb 66f 61f
8:50pm  -   -   -  27 36 mph 1024.2mb 66f 61f
7:50pm 16.5ft 10s 8s 27 34 mph 1023mb 66f 62f
6:50pm  -   -   -  27 34 mph 1021.8mb 66f 62f
5:50pm 16.5ft 11s 8s 27 34 mph 1020.6mb 66f 62f
4:50pm 17ft 11s 8s 27 34 mph 1019.9mb 67f 62f
3:50pm  -   -   -  29 36 mph 1019.3mb 67f 62f
2:50pm  -   -   -  31 40 mph 1018.7mb 67f 62f
1:50pm 18.5ft 11s 8s 31 38 mph 1018.1mb 67f 62f
12:50pm 15ft 11s 8s 31 40 mph 1017.4mb 67f 65f
11:50am 14ft 10s 7s 29 38 mph 1017.1mb 67f 65f
10:50am 11ft 11s 7s 29 38 mph 1016.4mb 67f 65f
9:50am 7.5ft 8s 6s 27 34 mph 1015.4mb 67f 65f
8:50am 8.5ft 8s 7s 18 31 mph 1014.3mb 67f 65f
7:50am 7ft 8s 6s 20 25 mph 1013.5mb 67f 65f
5:50am  -   -   -  18 22 mph 1012.5mb 67f 66f
4:50am  -   -   -  18 20 mph 1011.8mb 67f 67f
3:50am  -   -   -  13 18 mph 1011.2mb 67f 66f
2:50am  -   -   -  9 11 mph 1010.9mb 67f 66f
1:50am  -   -   -  11
mph
- - -
12:50am  -   -   -  9 13 mph 1011.9mb 67f 67f
Sat 04/25 11:50pm 7ft 8s 6s 13 18 mph 1012.2mb 67f 67f
10:50pm  -   -   -  13
mph
1012.4mb - 67f
9:50pm 7.5ft 8s 6s 16 20 mph 1010.6mb 67f 66f
8:50pm 8ft 8s 6s 13 16 mph 1012.2mb 67f 64f
7:50pm 7.5ft 8s 6s 22 43 mph 1010.7mb 67f 68f
6:50pm 8ft 8s 6s 20 27 mph 1011.4mb 67f 69f
5:50pm 8ft 8s 6s 16 22 mph 1012mb 68f 67f
4:50pm 8ft 8s 6s 25 31 mph 1012.6mb 68f 67f
3:50pm 7.5ft 7s 6s 20 22 mph 1012.9mb 68f 69f
2:50pm 7.5ft 9s 6s 20 25 mph 1013.7mb 68f 69f
1:50pm 7ft 8s 6s 18 20 mph 1015.1mb 68f 69f
12:50pm 7.5ft 8s 6s 16 20 mph 1015.8mb 68f 69f
11:50am 7ft 7s 6s 22 29 mph 1015.8mb 68f 69f
10:50am 7.5ft 7s 6s 22 27 mph 1016.8mb 68f 69f
9:50am 7ft 8s 6s 20 25 mph 1016.7mb 68f 69f
8:50am 7ft 9s 6s 20 25 mph 1016.6mb 68f 69f
7:50am 7ft 9s 6s 20 25 mph 1016.7mb 68f 69f
6:50am 7ft 8s 6s 20 25 mph 1017.1mb 68f 69f
5:50am 6.5ft 8s 6s 16 20 mph 1016.9mb 68f 69f
4:50am 7ft 8s 6s 18 22 mph 1016.6mb 68f 68f
3:50am 6ft 8s 6s 13 18 mph 1016.8mb 68f 69f
2:50am 6ft 9s 6s 18 20 mph 1017.1mb 68f 69f
1:50am 6ft 8s 6s 18 22 mph 1017.7mb 68f 69f
12:50am 6ft 9s 6s 16 20 mph 1018.3mb 68f 69f
Fri 04/24 11:50pm 6ft 8s 6s 16 20 mph 1018.9mb 69f 69f
10:50pm 6ft 8s 6s 16 20 mph 1019.3mb 69f 69f
9:50pm 7ft 8s 7s 16 20 mph 1020mb 69f 69f
8:50pm 6.5ft 9s 7s 16 20 mph 1020mb 69f 69f
7:50pm 6.5ft 9s 6s 13 18 mph 1019.8mb 69f 69f
6:50pm  -   -   -  13 16 mph 1019.8mb 69f 69f
5:50pm 6.5ft 8s 6s 13 16 mph 1019.8mb 70f 69f
4:50pm 6ft 9s 6s 11 13 mph 1020mb 70f 69f
3:50pm 6.5ft 9s 7s 11 13 mph 1020.2mb 69f 69f
2:50pm 6ft 8s 6s 11 16 mph 1020.6mb 69f 69f
1:50pm 7ft 8s 6s 13 18 mph 1021mb 69f 69f
12:50pm 6.5ft 8s 6s 13 18 mph 1021.2mb 69f 69f
11:50am 7ft 9s 6s 16 20 mph 1021.7mb 69f 69f
10:50am 7ft 9s 6s 18 22 mph 1022mb 69f 69f
9:50am 6.5ft 8s 6s 16 20 mph 1022.4mb 69f 69f
8:50am 7ft 8s 6s 16 20 mph 1022.4mb 69f 69f
7:50am 6.5ft 8s 6s 18 20 mph 1022.2mb 69f 69f
6:50am 7ft 9s 6s 18 20 mph 1021.9mb 69f 69f
5:50am 6.5ft 9s 6s 18 22 mph 1021.7mb 69f 69f
4:50am 6.5ft 9s 6s 16 20 mph 1021.5mb 69f 68f
3:50am 7ft 8s 6s 18 22 mph 1021.7mb 69f 69f
2:50am 7ft 8s 6s 18 22 mph 1022mb 69f 69f
1:50am 7ft 9s 6s 18 22 mph 1022.3mb 69f 69f
12:50am 7ft 8s 6s 18 22 mph 1023.1mb 69f 69f
Thu 04/23 11:50pm  -   -   -  20 25 mph 1023.2mb 69f 69f
10:50pm 7ft 9s 6s 20 22 mph 1023.6mb 69f 69f